Jacinto Arauz, Argentina
Current Conditions -  °F | °C
As of 9:00 PM on Wednesday 28 Jan 2015 (Local Time) from SAZN Reporting Station
Clear Clear  
Wind Chill: 77°   Ceiling: Unl
Heat Index: 78°   Visibility: 6mi
Dew Point: 48°   Wind: 5mph
Humidity: 36%   Direction: 110°ESE
Pressure: 29.97"   Gusts: NA
Location:  38.07°S, 63.43°W
Report Text: SAZN 290000Z 11004KT CAVOK 25/09 Q1015
Loading
Personal Weather Stations






























Interactive Weather Map New forecast layout! Learn more

10-Day Weather Forecast

Advertisements
Track Severe Weather on mobile